Alfred, New York
Current Conditions -  °F | °C
As of 6:56 AM on Friday 31 Oct 2014 (Local Time) from KELZ Reporting Station
Overcast Overcast  
Wind Chill: 36°   Ceiling: 11000
Heat Index: 36°   Visibility: 10mi
Dew Point: 32°   Wind: 3mph
Humidity: 86%   Direction: 190°S
Pressure: 29.95"   Gusts: NA
Location:  42.25°N, 77.79°W
Report Text: KELZ 311056Z AUTO 19003KT 10SM OVC110 02/00 A2995 RMK AO2 SLP158 T00220000
Loading
Personal Weather Stations






























Interactive Weather Map New forecast layout! Learn more

10-Day Weather Forecast

Advertisements
Track Severe Weather on mobile